Buoy 43533

sailwx.info

Track history (hours):
 
Tides and Currents Weather Stations Pressure Air Temp Water Temp Dewpoint Dewpoint Depression Visibility Wind Speed Wind Dir Waves Ship Positions

Drifting buoy 43533

Last reported at 2015-Jan-26 03:00 UTC. Time now 2015-Jan-26 06:28 UTC.
Position N 19°17' W 106°53'.

Length 24 m.

Type: Fishing. MMSI: 412466549.

Water temperature 25.8 ° C

Date/timePositionNaut miles runAvg speedWind from/ knotsBaromVisibWave heightAir tempDewpointWater temp
2015-Jan-26 03:00N 19°17' W 106°53'0 0.0 25.8
2015-Jan-26 02:00N 19°17' W 106°53'1 0.7 25.8
2015-Jan-26 01:00N 19°16' W 106°53'2 0.7 25.8
2015-Jan-25 22:00N 19°15' W 106°50'0 0.0 25.8
2015-Jan-25 21:00N 19°15' W 106°50'0 0.0 25.8
2015-Jan-25 20:00N 19°15' W 106°50'0 0.1 25.8
2015-Jan-25 18:00N 19°15' W 106°50'0 0.0 25.8
2015-Jan-25 17:00N 19°15' W 106°50'1 1.2 25.8
2015-Jan-25 16:00N 19°16' W 106°49'1 0.4 25.8
2015-Jan-25 14:00N 19°15' W 106°50'0 0.2 25.8
2015-Jan-25 13:00N 19°15' W 106°49'0 0.3 25.8
2015-Jan-25 12:00N 19°15' W 106°49'1 0.8 25.8
2015-Jan-25 11:00N 19°16' W 106°49'0 0.0 25.8
2015-Jan-25 10:00N 19°16' W 106°49'1 1.0 25.8
2015-Jan-25 09:00N 19°17' W 106°48'0 0.0 25.8
2015-Jan-25 04:00N 19°17' W 106°48'1 0.8 25.9
2015-Jan-25 03:00N 19°16' W 106°47'1 0.4 25.9
2015-Jan-25 00:00N 19°18' W 106°47'0 0.3 25.9
2015-Jan-24 23:00N 19°18' W 106°47'1 0.3 26.0
2015-Jan-24 21:00N 19°19' W 106°47'0 0.0 26.0
2015-Jan-24 20:00N 19°19' W 106°47'1 0.2 26.0
2015-Jan-24 17:00N 19°19' W 106°47'1 0.7 25.9
2015-Jan-24 16:00N 19°20' W 106°47'0 0.1 25.9
2015-Jan-24 13:00N 19°20' W 106°47'0 0.0 25.9
2015-Jan-24 12:00N 19°20' W 106°47'1 0.2 25.9
2015-Jan-24 09:00N 19°21' W 106°47'0 0.2 25.9
2015-Jan-24 08:00N 19°21' W 106°47'0 0.2 25.9
2015-Jan-24 07:00N 19°21' W 106°47'0 0.1 25.9
2015-Jan-24 05:00N 19°21' W 106°47'0 0.1 25.9
2015-Jan-24 03:00N 19°21' W 106°47'1 0.6 26.0
2015-Jan-24 02:00N 19°21' W 106°47'0 0.1 26.0
2015-Jan-24 00:00N 19°22' W 106°47'2 0.3 26.1
2015-Jan-23 18:00N 19°23' W 106°46'1 0.5 26.1
2015-Jan-23 17:00N 19°23' W 106°45'1 0.6 26.1
2015-Jan-23 16:00N 19°24' W 106°45'2 1.5 26.0
2015-Jan-23 15:00N 19°25' W 106°45'1 0.3 26.0
2015-Jan-23 13:00N 19°26' W 106°46'0 0.0 26.0
2015-Jan-23 12:00N 19°26' W 106°46'1 0.8 26.1
2015-Jan-23 11:00N 19°27' W 106°46'0 0.1 26.1
2015-Jan-23 10:00N 19°27' W 106°46'1 0.7 26.1
2015-Jan-23 09:00N 19°27' W 106°46'1 0.8 26.1
2015-Jan-23 08:00N 19°28' W 106°45'1 0.3 26.1
2015-Jan-23 05:00N 19°29' W 106°45'1 0.5 26.1
2015-Jan-23 04:00N 19°29' W 106°45'2 1.0 26.1
2015-Jan-23 02:00N 19°31' W 106°45'0 0.2 26.2
2015-Jan-22 23:00N 19°32' W 106°45'1 0.5 26.3
2015-Jan-22 21:00N 19°33' W 106°44'1 0.3 26.3
2015-Jan-22 19:00N 19°33' W 106°44'1 0.9 26.3
2015-Jan-22 18:00N 19°34' W 106°44'1 0.8 26.2
2015-Jan-22 17:00N 19°34' W 106°45'1 1.0 26.1
2015-Jan-22 16:00N 19°35' W 106°44'2 0.5 26.1
2015-Jan-22 13:00N 19°36' W 106°43'0 0.0 26.1
2015-Jan-22 12:00N 19°36' W 106°43'1 0.6 26.1
2015-Jan-22 11:00N 19°36' W 106°43'1 0.8 26.1
2015-Jan-22 10:00N 19°37' W 106°42'2 0.8 26.1
2015-Jan-22 08:00N 19°38' W 106°41'0 0.0 26.1
2015-Jan-22 05:00N 19°38' W 106°41'0 0.2 26.2
2015-Jan-22 04:00N 19°38' W 106°41'1 0.7 26.2
2015-Jan-22 03:00N 19°39' W 106°40'2 1.5 26.2
2015-Jan-22 02:00N 19°40' W 106°39'1 0.9 26.2
2015-Jan-22 01:00N 19°40' W 106°39'0 0.1 26.3
2015-Jan-21 23:00N 19°40' W 106°39'1 0.5 26.4
2015-Jan-21 21:00N 19°41' W 106°38'1 1.2 26.5
2015-Jan-21 20:00N 19°42' W 106°38'1 0.7 26.5
2015-Jan-21 18:00N 19°44' W 106°37'0 0.3 26.3
2015-Jan-21 17:00N 19°44' W 106°38'1 0.7 26.2
2015-Jan-21 16:00N 19°45' W 106°38'1 0.2 26.1
2015-Jan-21 12:00N 19°45' W 106°37'0 0.3 26.2
2015-Jan-21 11:00N 19°44' W 106°38'0 0.4 26.2
2015-Jan-21 10:00N 19°44' W 106°37'2 0.4 26.2
2015-Jan-21 05:00N 19°45' W 106°35'0 0.2 26.2
2015-Jan-21 03:00N 19°45' W 106°35'1 0.5 26.3
2015-Jan-21 01:00N 19°44' W 106°34'2 1.5 26.3
2015-Jan-21 00:00N 19°45' W 106°32'0 0.1 26.3
2015-Jan-20 23:00N 19°45' W 106°32'2 1.5 26.4
2015-Jan-20 22:00N 19°45' W 106°31'1 1.0 26.4
2015-Jan-20 21:00N 19°46' W 106°30'0 0.0 26.4
2015-Jan-20 20:00N 19°46' W 106°30'3 0.6 26.4
2015-Jan-20 15:00N 19°49' W 106°29'0 0.2 26.2
2015-Jan-20 13:00N 19°49' W 106°28'1 0.4 26.2
2015-Jan-20 10:00N 19°49' W 106°27'0 0.0 26.2
2015-Jan-20 09:00N 19°49' W 106°27'1 0.9 26.2
2015-Jan-20 08:00N 19°49' W 106°26'1 0.2 26.3
2015-Jan-20 04:00N 19°48' W 106°26'0 0.0 26.3
2015-Jan-20 03:00N 19°48' W 106°26'1 0.7 26.3
2015-Jan-20 02:00N 19°49' W 106°26'2 0.9 26.3
2015-Jan-20 00:00N 19°48' W 106°24'0 0.1 26.4
2015-Jan-19 23:00N 19°48' W 106°24'1 1.4 26.4
2015-Jan-19 22:00N 19°47' W 106°23'0 0.0 26.4
2015-Jan-19 21:00N 19°47' W 106°23'0 0.0 26.4
2015-Jan-19 20:00N 19°47' W 106°23'1 0.9 26.3
2015-Jan-19 19:00N 19°47' W 106°22'1 0.3 26.3
2015-Jan-19 17:00N 19°47' W 106°22'0 0.0 26.2
2015-Jan-19 16:00N 19°47' W 106°22'0 0.0 26.1
2015-Jan-19 15:00N 19°47' W 106°22'2 0.8 26.1
2015-Jan-19 12:00N 19°46' W 106°19'2 0.8 26.1
2015-Jan-19 10:00N 19°46' W 106°18'1 1.2 26.1
2015-Jan-19 09:00N 19°46' W 106°16'0 0.1 26.1
2015-Jan-19 05:00N 19°46' W 106°16'0 0.2 26.2
2015-Jan-19 03:00N 19°46' W 106°16'0 0.5 26.2
2015-Jan-19 02:00N 19°46' W 106°16'0 0.2 26.2
2015-Jan-19 00:00N 19°45' W 106°15'0 0.1 26.2
2015-Jan-18 23:00N 19°45' W 106°16'1 0.8 26.3
2015-Jan-18 22:00N 19°44' W 106°15'1 0.8 26.3
2015-Jan-18 21:00N 19°44' W 106°15'2 1.7 26.3
2015-Jan-18 20:00N 19°42' W 106°14'0 0.0 26.3
2015-Jan-18 18:00N 19°42' W 106°14'0 0.5 26.2
2015-Jan-18 17:00N 19°42' W 106°14'0 0.0 26.1
2015-Jan-18 16:00N 19°42' W 106°14'0 0.0 26.1
2015-Jan-18 15:00N 19°42' W 106°14'3 1.5 26.1
2015-Jan-18 13:00N 19°41' W 106°11'1 0.6 26.1
2015-Jan-18 12:00N 19°40' W 106°10'1 0.6 26.1
2015-Jan-18 11:00N 19°41' W 106°10'3 1.7 26.1
2015-Jan-18 09:00N 19°40' W 106°06'1 0.2 26.2
2015-Jan-18 04:00N 19°40' W 106°05'0 0.5 26.4
2015-Jan-18 03:00N 19°40' W 106°05'0 0.0 26.4
2015-Jan-18 02:00N 19°40' W 106°05'1 0.3 26.5
2015-Jan-18 00:00N 19°39' W 106°05'1 0.7 26.5
2015-Jan-17 23:00N 19°39' W 106°04'0 0.0 26.6
2015-Jan-17 22:00N 19°39' W 106°04'0 0.0 26.6
2015-Jan-17 21:00N 19°39' W 106°04'0 0.0 26.6
2015-Jan-17 20:00N 19°39' W 106°04'2 0.5 26.6
2015-Jan-17 16:00N 19°36' W 106°04'0 0.0 26.4
2015-Jan-17 15:00N 19°36' W 106°04'2 0.8 26.3
2015-Jan-17 13:00N 19°35' W 106°04'2 1.2 26.2
2015-Jan-17 11:00N 19°33' W 106°02'3 1.4 26.2
2015-Jan-17 09:00N 19°31' W 106°00'0 0.0 26.2
2015-Jan-17 05:00N 19°31' W 106°00'0 0.3 26.3
2015-Jan-17 04:00N 19°31' W 106°01'1 0.6 26.5
2015-Jan-17 03:00N 19°31' W 106°00'0 0.2 26.6
2015-Jan-17 01:00N 19°31' W 105°60'2 0.8 26.7
2015-Jan-16 22:00N 19°29' W 106°00'2 2.1 26.9
2015-Jan-16 21:00N 19°28' W 105°58'0 0.3 27.0
2015-Jan-16 20:00N 19°28' W 105°58'1 0.6 27.0
2015-Jan-16 18:00N 19°27' W 105°58'0 0.0 26.5
2015-Jan-16 17:00N 19°27' W 105°58'0 0.3 26.3
2015-Jan-16 16:00N 19°27' W 105°59'1 1.1 26.2
2015-Jan-16 15:00N 19°26' W 105°59'0 0.1 26.2
2015-Jan-16 13:00N 19°26' W 105°59'1 0.7 26.2
2015-Jan-16 12:00N 19°25' W 105°59'1 0.5 26.2
2015-Jan-16 11:00N 19°24' W 105°59'0 0.0 26.2
2015-Jan-16 10:00N 19°24' W 105°59'0 0.0 26.2
2015-Jan-16 09:00N 19°24' W 105°59'3 0.4 26.2
2015-Jan-16 03:00N 19°22' W 105°60'   26.3
Track history (hours):
 
Tides and Currents Weather Stations Pressure Air Temp Water Temp Dewpoint Dewpoint Depression Visibility Wind Speed Wind Dir Waves Ship Positions

Drifting buoy 43533

Last reported at 2015-Jan-26 03:00 UTC. Time now 2015-Jan-26 06:28 UTC.
Position N 19°17' W 106°53'.

Length 24 m.

Type: Fishing. MMSI: 412466549.

Water temperature 25.8 ° C

Date/timePositionNaut miles runAvg speedWind from/ knotsBaromVisibWave heightAir tempDewpointWater temp
2015-Jan-26 03:00N 19°17' W 106°53'0 0.0 25.8
2015-Jan-26 02:00N 19°17' W 106°53'1 0.7 25.8
2015-Jan-26 01:00N 19°16' W 106°53'2 0.7 25.8
2015-Jan-25 22:00N 19°15' W 106°50'0 0.0 25.8
2015-Jan-25 21:00N 19°15' W 106°50'0 0.0 25.8
2015-Jan-25 20:00N 19°15' W 106°50'0 0.1 25.8
2015-Jan-25 18:00N 19°15' W 106°50'0 0.0 25.8
2015-Jan-25 17:00N 19°15' W 106°50'1 1.2 25.8
2015-Jan-25 16:00N 19°16' W 106°49'1 0.4 25.8
2015-Jan-25 14:00N 19°15' W 106°50'0 0.2 25.8
2015-Jan-25 13:00N 19°15' W 106°49'0 0.3 25.8
2015-Jan-25 12:00N 19°15' W 106°49'1 0.8 25.8
2015-Jan-25 11:00N 19°16' W 106°49'0 0.0 25.8
2015-Jan-25 10:00N 19°16' W 106°49'1 1.0 25.8
2015-Jan-25 09:00N 19°17' W 106°48'0 0.0 25.8
2015-Jan-25 04:00N 19°17' W 106°48'1 0.8 25.9
2015-Jan-25 03:00N 19°16' W 106°47'1 0.4 25.9
2015-Jan-25 00:00N 19°18' W 106°47'0 0.3 25.9
2015-Jan-24 23:00N 19°18' W 106°47'1 0.3 26.0
2015-Jan-24 21:00N 19°19' W 106°47'0 0.0 26.0
2015-Jan-24 20:00N 19°19' W 106°47'1 0.2 26.0
2015-Jan-24 17:00N 19°19' W 106°47'1 0.7 25.9
2015-Jan-24 16:00N 19°20' W 106°47'0 0.1 25.9
2015-Jan-24 13:00N 19°20' W 106°47'0 0.0 25.9
2015-Jan-24 12:00N 19°20' W 106°47'1 0.2 25.9
2015-Jan-24 09:00N 19°21' W 106°47'0 0.2 25.9
2015-Jan-24 08:00N 19°21' W 106°47'0 0.2 25.9
2015-Jan-24 07:00N 19°21' W 106°47'0 0.1 25.9
2015-Jan-24 05:00N 19°21' W 106°47'0 0.1 25.9
2015-Jan-24 03:00N 19°21' W 106°47'1 0.6 26.0
2015-Jan-24 02:00N 19°21' W 106°47'0 0.1 26.0
2015-Jan-24 00:00N 19°22' W 106°47'2 0.3 26.1
2015-Jan-23 18:00N 19°23' W 106°46'1 0.5 26.1
2015-Jan-23 17:00N 19°23' W 106°45'1 0.6 26.1
2015-Jan-23 16:00N 19°24' W 106°45'2 1.5 26.0
2015-Jan-23 15:00N 19°25' W 106°45'1 0.3 26.0
2015-Jan-23 13:00N 19°26' W 106°46'0 0.0 26.0
2015-Jan-23 12:00N 19°26' W 106°46'1 0.8 26.1
2015-Jan-23 11:00N 19°27' W 106°46'0 0.1 26.1
2015-Jan-23 10:00N 19°27' W 106°46'1 0.7 26.1
2015-Jan-23 09:00N 19°27' W 106°46'1 0.8 26.1
2015-Jan-23 08:00N 19°28' W 106°45'1 0.3 26.1
2015-Jan-23 05:00N 19°29' W 106°45'1 0.5 26.1
2015-Jan-23 04:00N 19°29' W 106°45'2 1.0 26.1
2015-Jan-23 02:00N 19°31' W 106°45'0 0.2 26.2
2015-Jan-22 23:00N 19°32' W 106°45'1 0.5 26.3
2015-Jan-22 21:00N 19°33' W 106°44'1 0.3 26.3
2015-Jan-22 19:00N 19°33' W 106°44'1 0.9 26.3
2015-Jan-22 18:00N 19°34' W 106°44'1 0.8 26.2
2015-Jan-22 17:00N 19°34' W 106°45'1 1.0 26.1
2015-Jan-22 16:00N 19°35' W 106°44'2 0.5 26.1
2015-Jan-22 13:00N 19°36' W 106°43'0 0.0 26.1
2015-Jan-22 12:00N 19°36' W 106°43'1 0.6 26.1
2015-Jan-22 11:00N 19°36' W 106°43'1 0.8 26.1
2015-Jan-22 10:00N 19°37' W 106°42'2 0.8 26.1
2015-Jan-22 08:00N 19°38' W 106°41'0 0.0 26.1
2015-Jan-22 05:00N 19°38' W 106°41'0 0.2 26.2
2015-Jan-22 04:00N 19°38' W 106°41'1 0.7 26.2
2015-Jan-22 03:00N 19°39' W 106°40'2 1.5 26.2
2015-Jan-22 02:00N 19°40' W 106°39'1 0.9 26.2
2015-Jan-22 01:00N 19°40' W 106°39'0 0.1 26.3
2015-Jan-21 23:00N 19°40' W 106°39'1 0.5 26.4
2015-Jan-21 21:00N 19°41' W 106°38'1 1.2 26.5
2015-Jan-21 20:00N 19°42' W 106°38'1 0.7 26.5
2015-Jan-21 18:00N 19°44' W 106°37'0 0.3 26.3
2015-Jan-21 17:00N 19°44' W 106°38'1 0.7 26.2
2015-Jan-21 16:00N 19°45' W 106°38'1 0.2 26.1
2015-Jan-21 12:00N 19°45' W 106°37'0 0.3 26.2
2015-Jan-21 11:00N 19°44' W 106°38'0 0.4 26.2
2015-Jan-21 10:00N 19°44' W 106°37'2 0.4 26.2
2015-Jan-21 05:00N 19°45' W 106°35'0 0.2 26.2
2015-Jan-21 03:00N 19°45' W 106°35'1 0.5 26.3
2015-Jan-21 01:00N 19°44' W 106°34'2 1.5 26.3
2015-Jan-21 00:00N 19°45' W 106°32'0 0.1 26.3
2015-Jan-20 23:00N 19°45' W 106°32'2 1.5 26.4
2015-Jan-20 22:00N 19°45' W 106°31'1 1.0 26.4
2015-Jan-20 21:00N 19°46' W 106°30'0 0.0 26.4
2015-Jan-20 20:00N 19°46' W 106°30'3 0.6 26.4
2015-Jan-20 15:00N 19°49' W 106°29'0 0.2 26.2
2015-Jan-20 13:00N 19°49' W 106°28'1 0.4 26.2
2015-Jan-20 10:00N 19°49' W 106°27'0 0.0 26.2
2015-Jan-20 09:00N 19°49' W 106°27'1 0.9 26.2
2015-Jan-20 08:00N 19°49' W 106°26'1 0.2 26.3
2015-Jan-20 04:00N 19°48' W 106°26'0 0.0 26.3
2015-Jan-20 03:00N 19°48' W 106°26'1 0.7 26.3
2015-Jan-20 02:00N 19°49' W 106°26'2 0.9 26.3
2015-Jan-20 00:00N 19°48' W 106°24'0 0.1 26.4
2015-Jan-19 23:00N 19°48' W 106°24'1 1.4 26.4
2015-Jan-19 22:00N 19°47' W 106°23'0 0.0 26.4
2015-Jan-19 21:00N 19°47' W 106°23'0 0.0 26.4
2015-Jan-19 20:00N 19°47' W 106°23'1 0.9 26.3
2015-Jan-19 19:00N 19°47' W 106°22'1 0.3 26.3
2015-Jan-19 17:00N 19°47' W 106°22'0 0.0 26.2
2015-Jan-19 16:00N 19°47' W 106°22'0 0.0 26.1
2015-Jan-19 15:00N 19°47' W 106°22'2 0.8 26.1
2015-Jan-19 12:00N 19°46' W 106°19'2 0.8 26.1
2015-Jan-19 10:00N 19°46' W 106°18'1 1.2 26.1
2015-Jan-19 09:00N 19°46' W 106°16'0 0.1 26.1
2015-Jan-19 05:00N 19°46' W 106°16'0 0.2 26.2
2015-Jan-19 03:00N 19°46' W 106°16'0 0.5 26.2
2015-Jan-19 02:00N 19°46' W 106°16'0 0.2 26.2
2015-Jan-19 00:00N 19°45' W 106°15'0 0.1 26.2
2015-Jan-18 23:00N 19°45' W 106°16'1 0.8 26.3
2015-Jan-18 22:00N 19°44' W 106°15'1 0.8 26.3
2015-Jan-18 21:00N 19°44' W 106°15'2 1.7 26.3
2015-Jan-18 20:00N 19°42' W 106°14'0 0.0 26.3
2015-Jan-18 18:00N 19°42' W 106°14'0 0.5 26.2
2015-Jan-18 17:00N 19°42' W 106°14'0 0.0 26.1
2015-Jan-18 16:00N 19°42' W 106°14'0 0.0 26.1
2015-Jan-18 15:00N 19°42' W 106°14'3 1.5 26.1
2015-Jan-18 13:00N 19°41' W 106°11'1 0.6 26.1
2015-Jan-18 12:00N 19°40' W 106°10'1 0.6 26.1
2015-Jan-18 11:00N 19°41' W 106°10'3 1.7 26.1
2015-Jan-18 09:00N 19°40' W 106°06'1 0.2 26.2
2015-Jan-18 04:00N 19°40' W 106°05'0 0.5 26.4
2015-Jan-18 03:00N 19°40' W 106°05'0 0.0 26.4
2015-Jan-18 02:00N 19°40' W 106°05'1 0.3 26.5
2015-Jan-18 00:00N 19°39' W 106°05'1 0.7 26.5
2015-Jan-17 23:00N 19°39' W 106°04'0 0.0 26.6
2015-Jan-17 22:00N 19°39' W 106°04'0 0.0 26.6
2015-Jan-17 21:00N 19°39' W 106°04'0 0.0 26.6
2015-Jan-17 20:00N 19°39' W 106°04'2 0.5 26.6
2015-Jan-17 16:00N 19°36' W 106°04'0 0.0 26.4
2015-Jan-17 15:00N 19°36' W 106°04'2 0.8 26.3
2015-Jan-17 13:00N 19°35' W 106°04'2 1.2 26.2
2015-Jan-17 11:00N 19°33' W 106°02'3 1.4 26.2
2015-Jan-17 09:00N 19°31' W 106°00'0 0.0 26.2
2015-Jan-17 05:00N 19°31' W 106°00'0 0.3 26.3
2015-Jan-17 04:00N 19°31' W 106°01'1 0.6 26.5
2015-Jan-17 03:00N 19°31' W 106°00'0 0.2 26.6
2015-Jan-17 01:00N 19°31' W 105°60'2 0.8 26.7
2015-Jan-16 22:00N 19°29' W 106°00'2 2.1 26.9
2015-Jan-16 21:00N 19°28' W 105°58'0 0.3 27.0
2015-Jan-16 20:00N 19°28' W 105°58'1 0.6 27.0
2015-Jan-16 18:00N 19°27' W 105°58'0 0.0 26.5
2015-Jan-16 17:00N 19°27' W 105°58'0 0.3 26.3
2015-Jan-16 16:00N 19°27' W 105°59'1 1.1 26.2
2015-Jan-16 15:00N 19°26' W 105°59'0 0.1 26.2
2015-Jan-16 13:00N 19°26' W 105°59'1 0.7 26.2
2015-Jan-16 12:00N 19°25' W 105°59'1 0.5 26.2
2015-Jan-16 11:00N 19°24' W 105°59'0 0.0 26.2
2015-Jan-16 10:00N 19°24' W 105°59'0 0.0 26.2
2015-Jan-16 09:00N 19°24' W 105°59'3 0.4 26.2
2015-Jan-16 03:00N 19°22' W 105°60'   26.3

Dump ship's entire track history